createdAt,value
2023-01-18T00:00:31.837Z,6.53
2023-01-18T00:01:34.672Z,6.93
2023-01-18T00:02:36.419Z,7.40
2023-01-18T00:03:38.519Z,6.27
2023-01-18T00:04:39.890Z,7.70
2023-01-18T00:05:41.573Z,7.17
2023-01-18T00:06:43.004Z,9.13
2023-01-18T00:07:44.442Z,8.70
2023-01-18T00:08:45.870Z,6.73
2023-01-18T00:09:47.254Z,6.13
2023-01-18T00:10:48.537Z,5.77
2023-01-18T00:11:49.931Z,8.60
2023-01-18T00:12:51.242Z,7.70
2023-01-18T00:13:53.904Z,8.63
2023-01-18T00:14:55.256Z,7.43
2023-01-18T00:16:03.450Z,6.77
2023-01-18T00:17:04.733Z,8.00
2023-01-18T00:18:06.310Z,7.97
2023-01-18T00:19:13.046Z,8.17
2023-01-18T00:20:15.035Z,8.13
2023-01-18T00:21:16.328Z,10.77
2023-01-18T00:22:17.755Z,10.67
2023-01-18T00:23:19.079Z,8.00
2023-01-18T00:24:22.857Z,6.37
2023-01-18T00:25:24.459Z,8.43
2023-01-18T00:26:25.778Z,6.83
2023-01-18T00:27:27.085Z,8.17
2023-01-18T00:28:28.545Z,5.50
2023-01-18T00:29:30.410Z,9.20
2023-01-18T00:30:31.761Z,8.63
2023-01-18T00:31:33.341Z,9.13
2023-01-18T00:32:34.792Z,6.50
2023-01-18T00:33:36.162Z,8.97
2023-01-18T00:34:37.564Z,7.13
2023-01-18T00:35:40.279Z,6.90
2023-01-18T00:36:48.400Z,5.93
2023-01-18T00:37:51.525Z,7.70
2023-01-18T00:38:53.827Z,5.50
2023-01-18T00:39:55.190Z,6.73
2023-01-18T00:40:56.636Z,6.57
2023-01-18T00:42:16.553Z,7.87
2023-01-18T00:43:36.735Z,7.23
2023-01-18T00:44:38.089Z,7.33
2023-01-18T00:45:40.928Z,8.73
2023-01-18T00:46:42.280Z,8.87
2023-01-18T00:47:43.623Z,6.23
2023-01-18T00:48:45.071Z,7.07
2023-01-18T00:49:46.485Z,8.80
2023-01-18T00:50:47.780Z,10.50
2023-01-18T00:51:49.069Z,7.60
2023-01-18T00:52:50.440Z,6.83
2023-01-18T00:53:52.038Z,8.87
2023-01-18T00:54:53.336Z,7.77
2023-01-18T00:55:54.676Z,7.63
2023-01-18T00:56:55.999Z,9.80
2023-01-18T00:57:57.279Z,7.13
2023-01-18T00:58:58.598Z,11.90
2023-01-18T00:59:59.880Z,8.07
2023-01-18T01:01:01.311Z,8.53
2023-01-18T01:02:03.128Z,8.63
2023-01-18T01:03:04.604Z,8.83
2023-01-18T01:04:24.555Z,8.37
2023-01-18T01:05:45.155Z,11.13
2023-01-18T01:06:47.061Z,8.37
2023-01-18T01:07:49.031Z,9.70
2023-01-18T01:08:50.424Z,10.20
2023-01-18T01:09:51.793Z,8.03
2023-01-18T01:11:02.820Z,11.77
2023-01-18T01:12:22.792Z,11.93
2023-01-18T01:13:42.610Z,9.63
2023-01-18T01:15:03.310Z,8.10
2023-01-18T01:16:29.812Z,10.77
2023-01-18T01:17:51.003Z,9.53
2023-01-18T01:19:10.787Z,10.07
2023-01-18T01:20:30.644Z,11.03
2023-01-18T01:21:50.599Z,11.70
2023-01-18T01:23:10.519Z,10.93
2023-01-18T01:24:30.470Z,9.27
2023-01-18T01:25:50.300Z,9.10
2023-01-18T01:26:51.594Z,7.50
2023-01-18T01:27:53.038Z,8.57
2023-01-18T01:28:54.333Z,9.17
2023-01-18T01:29:55.698Z,10.50
2023-01-18T01:31:00.957Z,9.93
2023-01-18T01:32:03.548Z,11.00
2023-01-18T01:33:04.913Z,10.77
2023-01-18T01:34:06.295Z,8.50
2023-01-18T01:35:07.713Z,9.80
2023-01-18T01:36:16.836Z,8.00
2023-01-18T01:37:18.129Z,9.13
2023-01-18T01:38:19.465Z,8.03
2023-01-18T01:39:20.901Z,10.40
2023-01-18T01:40:22.307Z,8.03
2023-01-18T01:41:28.283Z,9.80
2023-01-18T01:42:29.582Z,8.50
2023-01-18T01:43:44.925Z,7.57
2023-01-18T01:44:50.141Z,11.80
2023-01-18T01:45:52.718Z,8.80
2023-01-18T01:46:57.218Z,10.93
2023-01-18T01:47:58.618Z,10.37
2023-01-18T01:49:11.888Z,9.50
2023-01-18T01:50:31.366Z,9.80
2023-01-18T01:51:33.148Z,8.73
2023-01-18T01:52:37.869Z,10.23
2023-01-18T01:53:39.341Z,10.30
2023-01-18T01:54:50.056Z,10.97
2023-01-18T01:55:51.433Z,12.60
2023-01-18T01:56:55.113Z,10.53
2023-01-18T01:57:59.135Z,10.47
2023-01-18T01:59:01.511Z,10.90
2023-01-18T02:00:06.745Z,10.03
2023-01-18T02:01:13.379Z,10.63
2023-01-18T02:02:14.780Z,13.33
2023-01-18T02:03:19.517Z,11.70
2023-01-18T02:04:20.943Z,11.83
2023-01-18T02:05:22.428Z,12.07
2023-01-18T02:06:32.261Z,12.07
2023-01-18T02:07:33.980Z,10.73
2023-01-18T02:08:35.383Z,11.70
2023-01-18T02:09:37.046Z,12.17
2023-01-18T02:10:38.575Z,12.87
2023-01-18T02:11:40.873Z,13.57
2023-01-18T02:12:43.882Z,12.80
2023-01-18T02:13:45.205Z,13.27
2023-01-18T02:14:47.517Z,10.17
2023-01-18T02:15:55.672Z,8.90
2023-01-18T02:17:09.145Z,10.80
2023-01-18T02:18:15.051Z,11.87
2023-01-18T02:19:35.104Z,8.87
2023-01-18T02:20:55.445Z,10.03
2023-01-18T02:21:59.716Z,9.67
2023-01-18T02:23:00.974Z,12.80
2023-01-18T02:24:14.840Z,11.43
2023-01-18T02:25:26.923Z,10.67
2023-01-18T02:29:13.948Z,11.27
2023-01-18T02:30:15.253Z,10.97
2023-01-18T02:31:22.280Z,8.47
2023-01-18T02:32:45.390Z,13.53
2023-01-18T02:33:53.662Z,8.70
2023-01-18T02:35:03.775Z,11.83
2023-01-18T02:36:08.027Z,7.40
2023-01-18T02:37:12.956Z,12.60
2023-01-18T02:38:28.247Z,11.03
2023-01-18T02:39:38.317Z,9.63
2023-01-18T02:40:45.382Z,9.00
2023-01-18T02:42:10.048Z,10.93
2023-01-18T02:43:32.444Z,12.20
2023-01-18T02:44:55.596Z,8.03
2023-01-18T02:46:17.052Z,10.43
2023-01-18T02:47:18.410Z,10.50
2023-01-18T02:48:21.469Z,9.23
2023-01-18T02:49:27.116Z,8.70
2023-01-18T02:50:28.508Z,8.03
2023-01-18T02:51:29.824Z,9.00
2023-01-18T02:52:41.323Z,10.33
2023-01-18T02:53:43.851Z,7.13
2023-01-18T02:54:45.257Z,7.93
2023-01-18T02:55:58.951Z,10.80
2023-01-18T02:57:01.485Z,8.83
2023-01-18T02:58:10.985Z,7.93
2023-01-18T02:59:16.955Z,10.27
2023-01-18T03:00:19.117Z,7.03
2023-01-18T03:01:26.604Z,7.33
2023-01-18T03:02:28.370Z,8.03
2023-01-18T03:03:29.779Z,10.30
2023-01-18T03:04:33.231Z,8.40
2023-01-18T03:05:35.495Z,9.83
2023-01-18T03:06:37.880Z,8.57
2023-01-18T03:07:48.238Z,10.57
2023-01-18T03:08:51.613Z,8.83
2023-01-18T03:09:53.791Z,9.40
2023-01-18T03:10:57.766Z,8.83
2023-01-18T03:12:09.148Z,9.67
2023-01-18T03:13:36.734Z,7.90
2023-01-18T03:14:56.918Z,8.03
2023-01-18T03:16:05.415Z,7.03
2023-01-18T03:17:12.617Z,8.07
2023-01-18T03:18:32.981Z,7.37
2023-01-18T03:19:59.815Z,7.93
2023-01-18T03:21:02.501Z,11.70
2023-01-18T03:22:04.998Z,7.73
2023-01-18T03:23:29.918Z,7.63
2023-01-18T03:24:31.320Z,11.07
2023-01-18T03:25:33.762Z,8.23
2023-01-18T03:26:43.338Z,9.33
2023-01-18T03:28:03.962Z,9.67
2023-01-18T03:29:24.275Z,7.30
2023-01-18T03:30:44.836Z,9.77
2023-01-18T03:32:16.940Z,6.43
2023-01-18T03:33:37.845Z,7.97
2023-01-18T03:34:48.035Z,7.43
2023-01-18T03:35:51.134Z,7.47
2023-01-18T03:36:53.687Z,9.77
2023-01-18T03:37:56.332Z,7.67
2023-01-18T03:39:10.271Z,7.03
2023-01-18T03:40:16.917Z,10.27
2023-01-18T03:41:19.977Z,8.17
2023-01-18T03:42:24.526Z,8.17
2023-01-18T03:43:26.419Z,12.23
2023-01-18T03:44:32.936Z,14.43
2023-01-18T03:45:37.498Z,12.60
2023-01-18T03:46:40.074Z,13.50
2023-01-18T03:47:41.473Z,9.17
2023-01-18T03:48:42.844Z,29.13
2023-01-18T03:49:44.173Z,57.73
2023-01-18T03:50:49.559Z,35.13
2023-01-18T03:51:56.736Z,19.83
2023-01-18T03:53:00.149Z,53.50
2023-01-18T03:54:20.058Z,31.73
2023-01-18T03:55:28.312Z,21.93
2023-01-18T03:56:38.889Z,22.87
2023-01-18T03:57:43.814Z,13.97
2023-01-18T03:58:45.849Z,13.43
2023-01-18T03:59:47.444Z,9.00
2023-01-18T04:00:51.375Z,10.07
2023-01-18T04:01:52.744Z,8.57
2023-01-18T04:02:54.132Z,8.23
2023-01-18T04:03:55.582Z,7.67
2023-01-18T04:04:58.416Z,7.57
2023-01-18T04:06:01.788Z,7.27
2023-01-18T04:07:03.617Z,8.17
2023-01-18T04:08:05.141Z,6.47
2023-01-18T04:09:08.236Z,7.00
2023-01-18T04:10:10.339Z,7.43
2023-01-18T04:11:11.774Z,7.70
2023-01-18T04:12:13.688Z,6.97
2023-01-18T04:13:15.157Z,7.80
2023-01-18T04:14:16.660Z,8.07
2023-01-18T04:15:18.048Z,7.63
2023-01-18T04:16:19.413Z,9.00
2023-01-18T04:17:21.047Z,6.60
2023-01-18T04:18:22.386Z,7.47
2023-01-18T04:19:23.761Z,8.93
2023-01-18T04:20:25.146Z,7.10
2023-01-18T04:21:26.682Z,6.43
2023-01-18T04:22:28.089Z,7.37
2023-01-18T04:23:29.486Z,7.93
2023-01-18T04:24:30.876Z,7.80
2023-01-18T04:25:32.368Z,8.17
2023-01-18T04:26:36.695Z,6.87
2023-01-18T04:27:38.071Z,6.63
2023-01-18T04:28:39.414Z,10.00
2023-01-18T04:29:40.750Z,8.20
2023-01-18T04:30:42.044Z,8.23
2023-01-18T04:31:43.371Z,5.70
2023-01-18T04:32:46.199Z,8.17
2023-01-18T04:33:51.684Z,7.63
2023-01-18T04:34:53.476Z,8.13
2023-01-18T04:35:54.874Z,8.03
2023-01-18T04:36:56.230Z,8.30
2023-01-18T04:37:57.635Z,9.47
2023-01-18T04:38:59.343Z,8.23
2023-01-18T04:40:01.088Z,7.60
2023-01-18T04:41:03.283Z,9.80
2023-01-18T04:42:04.755Z,7.07
2023-01-18T04:43:06.132Z,6.73
2023-01-18T04:44:07.508Z,8.07
2023-01-18T04:45:09.354Z,7.57
2023-01-18T04:46:10.706Z,7.67
2023-01-18T04:47:12.041Z,9.83
2023-01-18T04:48:13.363Z,8.80
2023-01-18T04:49:16.235Z,7.90
2023-01-18T04:50:17.569Z,7.13
2023-01-18T04:51:18.930Z,8.73
2023-01-18T04:52:20.226Z,6.53
2023-01-18T04:53:21.737Z,9.63
2023-01-18T04:54:23.112Z,6.40
2023-01-18T04:55:24.447Z,8.00
2023-01-18T04:56:28.192Z,8.77
2023-01-18T04:57:38.361Z,6.83
2023-01-18T04:58:42.899Z,8.90
2023-01-18T04:59:45.833Z,9.40
2023-01-18T05:00:47.400Z,8.50
2023-01-18T05:01:51.782Z,8.47
2023-01-18T05:02:53.162Z,7.63
2023-01-18T05:03:54.556Z,6.60
2023-01-18T05:04:55.955Z,9.20
2023-01-18T05:05:57.283Z,7.80
2023-01-18T05:06:58.702Z,8.60
2023-01-18T05:08:03.417Z,6.93
2023-01-18T05:09:04.911Z,7.63
2023-01-18T05:10:06.442Z,7.07
2023-01-18T05:11:08.981Z,8.27
2023-01-18T05:12:10.350Z,6.67
2023-01-18T05:13:11.726Z,7.80
2023-01-18T05:14:13.608Z,7.03
2023-01-18T05:15:15.046Z,8.10
2023-01-18T05:16:17.765Z,6.60
2023-01-18T05:17:19.207Z,7.57
2023-01-18T05:18:20.604Z,9.03
2023-01-18T05:19:21.989Z,7.27
2023-01-18T05:20:23.451Z,8.50
2023-01-18T05:21:25.005Z,11.20
2023-01-18T05:22:27.959Z,8.67
2023-01-18T05:23:29.248Z,8.77
2023-01-18T05:24:30.700Z,8.17
2023-01-18T05:25:32.020Z,5.87
2023-01-18T05:26:33.418Z,10.77
2023-01-18T05:27:34.860Z,8.40
2023-01-18T05:28:36.310Z,9.40
2023-01-18T05:29:37.652Z,8.13
2023-01-18T05:30:41.039Z,9.87
2023-01-18T05:31:42.391Z,8.40
2023-01-18T05:32:43.800Z,11.60
2023-01-18T05:33:45.283Z,9.93
2023-01-18T05:34:46.591Z,7.57
2023-01-18T05:35:51.623Z,7.63
2023-01-18T05:36:53.055Z,6.53
2023-01-18T05:37:54.452Z,7.37
2023-01-18T05:38:55.879Z,6.53
2023-01-18T05:39:57.214Z,7.90
2023-01-18T05:40:58.952Z,6.97
2023-01-18T05:42:00.425Z,7.77
2023-01-18T05:43:01.797Z,8.93
2023-01-18T05:44:03.164Z,10.93
2023-01-18T05:45:04.677Z,7.03
2023-01-18T05:46:06.340Z,11.20
2023-01-18T05:47:07.730Z,7.80
2023-01-18T05:48:10.351Z,8.10
2023-01-18T05:49:11.708Z,10.30
2023-01-18T05:50:13.287Z,8.00
2023-01-18T05:51:14.697Z,7.67
2023-01-18T05:52:16.988Z,8.60
2023-01-18T05:53:19.327Z,6.57
2023-01-18T05:54:20.664Z,9.97
2023-01-18T05:55:22.063Z,8.53
2023-01-18T05:56:23.650Z,9.73
2023-01-18T05:57:25.166Z,11.23
2023-01-18T05:58:27.403Z,9.93
2023-01-18T05:59:28.805Z,10.20
2023-01-18T06:00:30.408Z,9.70
2023-01-18T06:01:31.902Z,10.67
2023-01-18T06:02:33.313Z,8.63
2023-01-18T06:03:34.724Z,10.53
2023-01-18T06:04:36.223Z,11.90
2023-01-18T06:05:37.566Z,14.90
2023-01-18T06:06:38.998Z,11.10
2023-01-18T06:07:42.133Z,13.43
2023-01-18T06:08:43.487Z,15.20
2023-01-18T06:09:44.860Z,11.97
2023-01-18T06:10:53.358Z,13.23
2023-01-18T06:11:54.729Z,12.80
2023-01-18T06:12:56.450Z,10.33
2023-01-18T06:13:57.985Z,14.17
2023-01-18T06:14:59.432Z,11.87
2023-01-18T06:16:01.181Z,13.10
2023-01-18T06:17:02.571Z,13.13
2023-01-18T06:18:04.048Z,10.60
2023-01-18T06:19:05.643Z,10.97
2023-01-18T06:20:07.605Z,12.70
2023-01-18T06:21:10.760Z,14.03
2023-01-18T06:22:12.100Z,11.13
2023-01-18T06:23:15.906Z,12.17
2023-01-18T06:24:17.260Z,13.20
2023-01-18T06:25:18.614Z,13.90
2023-01-18T06:26:20.050Z,13.43
2023-01-18T06:27:21.393Z,13.40
2023-01-18T06:28:22.871Z,14.60
2023-01-18T06:29:24.243Z,13.07
2023-01-18T06:30:26.090Z,15.17
2023-01-18T06:31:27.622Z,12.80
2023-01-18T06:32:28.984Z,15.33
2023-01-18T06:33:30.366Z,13.13
2023-01-18T06:34:33.125Z,13.63
2023-01-18T06:35:34.681Z,15.10
2023-01-18T06:36:36.750Z,13.17
2023-01-18T06:37:38.202Z,13.83
2023-01-18T06:38:39.607Z,12.83
2023-01-18T06:39:40.976Z,12.50
2023-01-18T06:40:42.325Z,15.47
2023-01-18T06:41:43.682Z,12.90
2023-01-18T06:42:47.978Z,13.13
2023-01-18T06:43:49.917Z,14.23
2023-01-18T06:44:51.237Z,12.97
2023-01-18T06:45:53.636Z,11.83
2023-01-18T06:46:55.100Z,12.93
2023-01-18T06:47:56.421Z,12.37
2023-01-18T06:48:57.841Z,11.23
2023-01-18T06:49:59.166Z,13.30
2023-01-18T06:51:00.518Z,10.43
2023-01-18T06:52:01.934Z,9.73
2023-01-18T06:53:03.508Z,11.87
2023-01-18T06:54:05.124Z,11.87
2023-01-18T06:55:06.544Z,12.07
2023-01-18T06:56:10.324Z,7.80
2023-01-18T06:57:12.347Z,10.70
2023-01-18T06:58:13.836Z,12.70
2023-01-18T06:59:15.498Z,11.70
2023-01-18T07:00:17.575Z,16.40
2023-01-18T07:01:19.141Z,15.23
2023-01-18T07:02:23.726Z,12.77
2023-01-18T07:03:25.903Z,14.07
2023-01-18T07:04:27.453Z,9.43
2023-01-18T07:05:28.787Z,10.03
2023-01-18T07:06:30.154Z,11.70
2023-01-18T07:07:31.570Z,9.73
2023-01-18T07:08:33.014Z,12.13
2023-01-18T07:09:34.389Z,11.80
2023-01-18T07:10:35.864Z,9.83
2023-01-18T07:11:37.573Z,10.50
2023-01-18T07:12:38.882Z,10.50
2023-01-18T07:13:40.947Z,10.20
2023-01-18T07:14:42.296Z,10.13
2023-01-18T07:15:43.723Z,13.90
2023-01-18T07:16:45.148Z,10.70
2023-01-18T07:17:46.522Z,12.00
2023-01-18T07:18:49.106Z,11.20
2023-01-18T07:19:50.865Z,11.90
2023-01-18T07:20:58.432Z,10.37
2023-01-18T07:22:00.554Z,10.17
2023-01-18T07:23:02.552Z,12.73
2023-01-18T07:24:04.064Z,12.13
2023-01-18T07:25:05.685Z,11.03
2023-01-18T07:26:06.989Z,11.97
2023-01-18T07:27:10.912Z,11.73
2023-01-18T07:28:13.121Z,12.33
2023-01-18T07:29:14.533Z,13.27
2023-01-18T07:30:16.089Z,9.87
2023-01-18T07:31:18.200Z,10.40
2023-01-18T07:32:19.543Z,12.60
2023-01-18T07:33:21.052Z,12.83
2023-01-18T07:34:22.362Z,12.43
2023-01-18T07:35:23.837Z,13.90
2023-01-18T07:36:25.215Z,11.03
2023-01-18T07:37:26.518Z,11.73
2023-01-18T07:38:28.123Z,13.63
2023-01-18T07:39:32.156Z,11.80
2023-01-18T07:40:34.219Z,11.90
2023-01-18T07:41:35.625Z,14.03
2023-01-18T07:42:37.308Z,10.80
2023-01-18T07:43:38.796Z,11.90
2023-01-18T07:44:40.293Z,13.17
2023-01-18T07:45:42.335Z,12.60
2023-01-18T07:46:43.886Z,13.40
2023-01-18T07:47:46.203Z,10.90
2023-01-18T07:48:48.431Z,15.03
2023-01-18T07:49:49.872Z,15.33
2023-01-18T07:50:55.519Z,11.97
2023-01-18T07:51:56.867Z,11.90
2023-01-18T07:52:59.552Z,14.27
2023-01-18T07:54:01.209Z,13.47
2023-01-18T07:55:02.588Z,11.67
2023-01-18T07:56:05.441Z,13.80
2023-01-18T07:57:06.815Z,11.50
2023-01-18T07:58:12.398Z,13.80
2023-01-18T07:59:15.285Z,12.30
2023-01-18T08:00:17.314Z,11.70
2023-01-18T08:01:20.123Z,11.40
2023-01-18T08:02:21.673Z,10.27
2023-01-18T08:03:23.068Z,10.87
2023-01-18T08:04:25.059Z,15.43
2023-01-18T08:05:27.726Z,13.20
2023-01-18T08:06:29.059Z,13.70
2023-01-18T08:07:33.729Z,16.10
2023-01-18T08:08:36.166Z,13.57
2023-01-18T08:09:37.525Z,12.50
2023-01-18T08:10:39.128Z,11.83
2023-01-18T08:11:40.466Z,11.43
2023-01-18T08:12:41.847Z,12.57
2023-01-18T08:13:43.411Z,10.93
2023-01-18T08:14:48.053Z,12.23
2023-01-18T08:15:49.434Z,11.20
2023-01-18T08:16:50.881Z,12.20
2023-01-18T08:17:52.277Z,13.90
2023-01-18T08:18:53.654Z,12.73
2023-01-18T08:19:55.034Z,12.40
2023-01-18T08:20:56.696Z,12.53
2023-01-18T08:21:58.137Z,13.43
2023-01-18T08:23:00.539Z,13.20
2023-01-18T08:24:02.197Z,11.33
2023-01-18T08:25:04.230Z,13.27
2023-01-18T08:26:06.227Z,12.40
2023-01-18T08:27:07.545Z,12.33
2023-01-18T08:28:09.377Z,16.63
2023-01-18T08:29:10.909Z,10.43
2023-01-18T08:30:12.498Z,13.20
2023-01-18T08:31:15.983Z,11.70
2023-01-18T08:32:17.355Z,11.17
2023-01-18T08:33:18.794Z,10.60
2023-01-18T08:34:20.149Z,10.77
2023-01-18T08:35:23.678Z,10.63
2023-01-18T08:36:25.710Z,9.80
2023-01-18T08:37:27.889Z,11.03
2023-01-18T08:38:29.217Z,8.63
2023-01-18T08:39:30.605Z,11.00
2023-01-18T08:40:31.974Z,9.37
2023-01-18T08:41:36.123Z,9.87
2023-01-18T08:42:37.402Z,11.10
2023-01-18T08:43:38.724Z,10.37
2023-01-18T08:44:40.059Z,13.03
2023-01-18T08:45:41.485Z,11.90
2023-01-18T08:46:42.797Z,9.73
2023-01-18T08:47:44.145Z,12.23
2023-01-18T08:48:48.322Z,8.97
2023-01-18T08:49:49.903Z,7.50
2023-01-18T08:50:51.812Z,9.27
2023-01-18T08:51:53.186Z,7.50
2023-01-18T08:52:54.835Z,9.20
2023-01-18T08:53:57.076Z,10.20
2023-01-18T08:54:58.418Z,7.83
2023-01-18T08:56:03.026Z,8.73
2023-01-18T08:57:06.783Z,9.40
2023-01-18T08:58:08.166Z,10.53
2023-01-18T08:59:09.719Z,7.07
2023-01-18T09:00:11.328Z,10.87
2023-01-18T09:01:12.924Z,9.00
2023-01-18T09:02:14.357Z,10.23
2023-01-18T09:03:20.242Z,8.90
2023-01-18T09:04:22.856Z,8.37
2023-01-18T09:05:25.604Z,9.07
2023-01-18T09:06:31.775Z,6.37
2023-01-18T09:07:33.182Z,8.87
2023-01-18T09:08:35.020Z,7.87
2023-01-18T09:09:36.318Z,6.83
2023-01-18T09:10:38.718Z,10.70
2023-01-18T09:11:40.070Z,6.67
2023-01-18T09:12:41.435Z,8.67
2023-01-18T09:13:59.427Z,8.17
2023-01-18T09:15:01.789Z,6.97
2023-01-18T09:16:08.034Z,7.00
2023-01-18T09:17:09.484Z,8.80
2023-01-18T09:18:10.799Z,8.20
2023-01-18T09:19:12.479Z,4.67
2023-01-18T09:20:13.821Z,7.93
2023-01-18T09:21:17.271Z,7.47
2023-01-18T09:22:18.555Z,6.90
2023-01-18T09:23:20.335Z,8.30
2023-01-18T09:24:21.756Z,7.70
2023-01-18T09:25:23.066Z,7.47
2023-01-18T09:26:24.603Z,5.93
2023-01-18T09:27:28.739Z,7.80
2023-01-18T09:28:30.315Z,7.73
2023-01-18T09:29:31.885Z,10.77
2023-01-18T09:30:33.453Z,7.60
2023-01-18T09:31:34.865Z,10.23
2023-01-18T09:32:36.403Z,7.33
2023-01-18T09:33:38.224Z,7.30
2023-01-18T09:34:40.874Z,7.13
2023-01-18T09:35:42.262Z,9.20
2023-01-18T09:36:43.560Z,7.27
2023-01-18T09:37:45.744Z,9.10
2023-01-18T09:38:47.122Z,10.00
2023-01-18T09:39:52.301Z,7.93
2023-01-18T09:40:54.221Z,8.80
2023-01-18T09:42:00.307Z,7.23
2023-01-18T09:43:01.802Z,5.13
2023-01-18T09:44:07.401Z,6.50
2023-01-18T09:45:16.952Z,9.77
2023-01-18T09:46:19.637Z,6.27
2023-01-18T09:47:28.379Z,7.13
2023-01-18T09:48:30.727Z,6.67
2023-01-18T09:49:41.248Z,7.60
2023-01-18T09:50:43.886Z,6.93
2023-01-18T09:51:45.197Z,6.17
2023-01-18T09:52:46.521Z,7.37
2023-01-18T09:53:57.645Z,6.60
2023-01-18T09:54:58.908Z,7.17
2023-01-18T09:56:29.583Z,7.23
2023-01-18T09:57:55.579Z,5.97
2023-01-18T09:59:15.145Z,5.47
2023-01-18T10:00:20.456Z,11.10
2023-01-18T10:01:23.089Z,6.70
2023-01-18T10:02:28.926Z,7.57
2023-01-18T10:03:34.362Z,8.60
2023-01-18T10:04:38.482Z,10.03
2023-01-18T10:05:47.284Z,6.77
2023-01-18T10:07:02.210Z,8.20
2023-01-18T10:08:07.896Z,8.93
2023-01-18T10:09:15.546Z,5.50
2023-01-18T10:10:19.048Z,6.63
2023-01-18T10:11:20.391Z,6.70
2023-01-18T10:12:26.148Z,6.23
2023-01-18T10:13:42.839Z,8.40
2023-01-18T10:14:49.581Z,7.30
2023-01-18T10:15:51.148Z,6.30
2023-01-18T10:17:02.218Z,7.67
2023-01-18T10:18:04.096Z,10.43
2023-01-18T10:19:13.738Z,7.43
2023-01-18T10:20:21.314Z,9.07
2023-01-18T10:21:29.040Z,5.43
2023-01-18T10:22:32.885Z,5.90
2023-01-18T10:23:44.280Z,4.93
2023-01-18T10:25:05.828Z,6.43
2023-01-18T10:26:34.930Z,7.07
2023-01-18T10:27:43.273Z,6.90
2023-01-18T10:28:51.124Z,5.20
2023-01-18T10:30:15.713Z,7.07
2023-01-18T10:31:23.213Z,8.27
2023-01-18T10:32:25.788Z,5.60
2023-01-18T10:33:35.664Z,8.17
2023-01-18T10:34:40.828Z,7.97
2023-01-18T10:35:45.249Z,6.27
2023-01-18T10:36:52.864Z,7.83
2023-01-18T10:37:56.657Z,6.97
2023-01-18T10:38:59.873Z,7.47
2023-01-18T10:40:02.430Z,8.13
2023-01-18T10:41:03.951Z,9.03
2023-01-18T10:42:13.367Z,6.17
2023-01-18T10:43:17.102Z,7.47
2023-01-18T10:44:18.497Z,10.17
2023-01-18T10:45:30.286Z,9.07
2023-01-18T10:46:32.097Z,5.67
2023-01-18T10:47:33.942Z,10.50
2023-01-18T10:48:35.326Z,6.23
2023-01-18T10:49:40.893Z,7.13
2023-01-18T10:50:45.437Z,9.20
2023-01-18T10:51:49.611Z,8.87
2023-01-18T10:52:50.952Z,8.53
2023-01-18T10:53:52.384Z,9.07
2023-01-18T10:54:58.218Z,10.77
2023-01-18T10:56:02.905Z,8.23
2023-01-18T10:57:05.509Z,8.87
2023-01-18T10:58:11.390Z,8.50
2023-01-18T10:59:29.188Z,6.63
2023-01-18T11:00:34.622Z,6.83
2023-01-18T11:01:37.174Z,6.10
2023-01-18T11:02:39.328Z,7.63
2023-01-18T11:03:45.320Z,6.37
2023-01-18T11:04:52.950Z,7.43
2023-01-18T11:06:01.141Z,8.83
2023-01-18T11:07:03.763Z,8.13
2023-01-18T11:08:25.300Z,5.97
2023-01-18T11:09:35.795Z,7.83
2023-01-18T11:10:41.482Z,8.17
2023-01-18T11:12:01.274Z,8.63
2023-01-18T11:13:02.855Z,8.77
2023-01-18T11:14:21.733Z,7.87
2023-01-18T11:15:24.083Z,5.60
2023-01-18T11:16:25.421Z,6.07
2023-01-18T11:17:26.779Z,5.97
2023-01-18T11:18:28.713Z,7.20
2023-01-18T11:19:30.293Z,5.37
2023-01-18T11:20:34.442Z,6.90
2023-01-18T11:21:40.991Z,8.10
2023-01-18T11:23:13.613Z,6.93
2023-01-18T11:24:18.965Z,7.17
2023-01-18T11:25:20.554Z,8.60
2023-01-18T11:26:23.310Z,8.57
2023-01-18T11:27:25.275Z,8.43
2023-01-18T11:28:37.468Z,5.87
2023-01-18T11:29:42.814Z,8.57
2023-01-18T11:30:56.792Z,7.60
2023-01-18T11:32:06.466Z,5.73
2023-01-18T11:33:16.413Z,6.97
2023-01-18T11:34:22.977Z,8.33
2023-01-18T11:35:32.577Z,6.37
2023-01-18T11:36:39.832Z,7.13
2023-01-18T11:37:43.449Z,7.77
2023-01-18T11:38:44.893Z,8.17
2023-01-18T11:39:46.599Z,10.63
2023-01-18T11:40:48.876Z,8.93
2023-01-18T11:41:50.730Z,10.60
2023-01-18T11:42:54.981Z,6.87
2023-01-18T11:44:01.443Z,8.60
2023-01-18T11:45:14.711Z,8.30
2023-01-18T11:46:29.213Z,7.27
2023-01-18T11:47:52.241Z,7.60
2023-01-18T11:48:57.767Z,9.07
2023-01-18T11:50:07.729Z,5.37
2023-01-18T11:51:17.007Z,7.33
2023-01-18T11:52:36.748Z,6.30
2023-01-18T11:53:43.832Z,5.63
2023-01-18T11:54:53.422Z,6.27
2023-01-18T11:56:04.864Z,9.40
2023-01-18T11:57:10.343Z,7.90
2023-01-18T11:58:23.745Z,6.27
2023-01-18T11:59:30.286Z,6.93
2023-01-18T12:00:40.064Z,7.30
2023-01-18T12:01:47.763Z,7.33
2023-01-18T12:02:56.124Z,9.03
2023-01-18T12:03:57.547Z,12.90
2023-01-18T12:05:16.476Z,8.13
2023-01-18T12:06:32.937Z,5.50
2023-01-18T12:07:40.098Z,7.93
2023-01-18T12:08:51.612Z,8.90
2023-01-18T12:09:55.484Z,7.17
2023-01-18T12:11:09.663Z,8.03
2023-01-18T12:12:36.651Z,9.67
2023-01-18T12:13:52.308Z,8.70
2023-01-18T12:15:06.249Z,9.63
2023-01-18T12:16:14.345Z,6.30
2023-01-18T12:17:15.700Z,10.33
2023-01-18T12:18:36.541Z,6.70
2023-01-18T12:19:37.940Z,6.50
2023-01-18T12:21:01.222Z,9.40
2023-01-18T12:22:11.129Z,12.43
2023-01-18T12:23:15.486Z,5.70
2023-01-18T12:24:16.814Z,7.83
2023-01-18T12:25:31.730Z,6.87
2023-01-18T12:26:42.779Z,5.27
2023-01-18T12:27:52.637Z,5.07
2023-01-18T12:29:04.726Z,8.53
2023-01-18T12:30:15.774Z,6.60
2023-01-18T12:31:35.935Z,7.63
2023-01-18T12:32:42.451Z,8.80
2023-01-18T12:33:52.051Z,7.17
2023-01-18T12:35:15.730Z,6.37
2023-01-18T12:36:41.552Z,7.67
2023-01-18T12:37:52.953Z,6.97
2023-01-18T12:38:55.298Z,8.70
2023-01-18T12:40:25.747Z,7.03
2023-01-18T12:41:40.477Z,6.73
2023-01-18T12:42:44.757Z,5.57
2023-01-18T12:44:02.534Z,5.80
2023-01-18T12:45:26.152Z,6.37
2023-01-18T12:46:32.090Z,8.07
2023-01-18T12:47:35.957Z,6.57
2023-01-18T12:48:48.632Z,6.23
2023-01-18T12:49:58.029Z,5.20
2023-01-18T12:51:00.566Z,6.30
2023-01-18T12:52:17.752Z,6.23
2023-01-18T12:53:26.506Z,6.43
2023-01-18T12:54:33.073Z,5.73
2023-01-18T12:55:37.916Z,8.63
2023-01-18T12:56:41.233Z,8.67
2023-01-18T12:57:44.259Z,7.07
2023-01-18T12:58:53.375Z,9.97
2023-01-18T12:59:57.939Z,7.03
2023-01-18T13:01:02.688Z,7.70
2023-01-18T13:02:10.042Z,5.93
2023-01-18T13:03:13.052Z,11.63
2023-01-18T13:04:19.456Z,9.27
2023-01-18T13:05:34.994Z,9.40
2023-01-18T13:06:37.654Z,6.73
2023-01-18T13:07:40.555Z,9.80
2023-01-18T13:08:44.885Z,8.47
2023-01-18T13:09:49.267Z,9.80
2023-01-18T13:10:51.872Z,10.73
2023-01-18T13:11:53.384Z,6.83
2023-01-18T13:12:56.118Z,9.33
2023-01-18T13:14:11.132Z,6.00
2023-01-18T13:15:22.382Z,9.77
2023-01-18T13:16:32.747Z,9.40
2023-01-18T13:17:40.292Z,8.83
2023-01-18T13:18:52.829Z,9.70
2023-01-18T13:20:14.555Z,9.50
2023-01-18T13:21:24.261Z,8.67
2023-01-18T13:22:35.169Z,8.30
2023-01-18T13:23:49.402Z,9.30
2023-01-18T13:24:56.743Z,8.70
2023-01-18T13:26:06.473Z,8.07
2023-01-18T13:27:15.126Z,7.07
2023-01-18T13:28:16.599Z,9.17
2023-01-18T13:29:30.198Z,9.80
2023-01-18T13:30:33.023Z,10.93
2023-01-18T13:31:34.379Z,10.47
2023-01-18T13:32:36.758Z,7.23
2023-01-18T13:33:40.816Z,7.50
2023-01-18T13:34:48.329Z,8.33
2023-01-18T13:35:55.165Z,10.23
2023-01-18T13:37:13.047Z,12.50
2023-01-18T13:38:21.125Z,11.40
2023-01-18T13:39:24.543Z,9.47
2023-01-18T13:40:36.628Z,8.20
2023-01-18T13:41:37.934Z,13.60
2023-01-18T13:42:39.463Z,8.47
2023-01-18T13:43:41.407Z,9.17
2023-01-18T13:44:47.130Z,8.17
2023-01-18T13:46:02.661Z,9.20
2023-01-18T13:47:23.960Z,8.23
2023-01-18T13:48:45.043Z,9.73
2023-01-18T13:49:46.500Z,11.07
2023-01-18T13:50:47.946Z,13.10
2023-01-18T13:51:52.108Z,10.50
2023-01-18T13:53:12.234Z,10.13
2023-01-18T13:54:18.541Z,8.93
2023-01-18T13:55:25.427Z,10.53
2023-01-18T13:56:28.231Z,9.43
2023-01-18T13:57:30.539Z,10.03
2023-01-18T13:58:32.956Z,9.23
2023-01-18T13:59:34.292Z,9.83
2023-01-18T14:00:39.517Z,7.47
2023-01-18T14:01:49.305Z,7.57
2023-01-18T14:02:54.451Z,9.27
2023-01-18T14:03:55.890Z,9.33
2023-01-18T14:05:03.428Z,7.47
2023-01-18T14:06:12.994Z,7.40
2023-01-18T14:07:21.749Z,8.83
2023-01-18T14:08:29.000Z,8.93
2023-01-18T14:09:33.955Z,6.43
2023-01-18T14:10:36.979Z,9.43
2023-01-18T14:11:42.430Z,8.57
2023-01-18T14:12:50.751Z,6.77
2023-01-18T14:13:55.064Z,7.17
2023-01-18T14:14:58.919Z,7.83
2023-01-18T14:16:01.253Z,6.90
2023-01-18T14:17:15.160Z,7.50
2023-01-18T14:18:22.635Z,6.13
2023-01-18T14:19:27.494Z,9.17
2023-01-18T14:20:49.745Z,5.87